createdAt,value
2018-05-02T00:01:07.432Z,59.45
2018-05-02T00:03:34.998Z,58.03
2018-05-02T00:06:02.523Z,57.69
2018-05-02T00:08:30.054Z,57.92
2018-05-02T00:10:57.705Z,58.24
2018-05-02T00:15:57.761Z,57.53
2018-05-02T00:18:25.291Z,58.45
2018-05-02T00:20:52.801Z,58.64
2018-05-02T00:23:20.341Z,57.47
2018-05-02T00:25:47.857Z,58.84
2018-05-02T00:28:15.424Z,59.23
2018-05-02T00:30:42.946Z,58.03
2018-05-02T00:33:10.454Z,59.24
2018-05-02T00:35:38.004Z,58.98
2018-05-02T00:38:05.546Z,59.95
2018-05-02T00:40:33.090Z,59.81
2018-05-02T00:43:00.745Z,61.08
2018-05-02T00:45:28.306Z,60.74
2018-05-02T00:47:55.888Z,61.02
2018-05-02T00:50:23.361Z,61.57
2018-05-02T00:52:50.924Z,62.21
2018-05-02T00:55:18.621Z,62.10
2018-05-02T00:57:46.148Z,62.35
2018-05-02T01:00:13.744Z,62.21
2018-05-02T01:02:41.268Z,62.66
2018-05-02T01:05:08.788Z,63.51
2018-05-02T01:07:36.326Z,62.93
2018-05-02T01:10:03.855Z,63.97
2018-05-02T01:12:31.398Z,65.56
2018-05-02T01:14:58.942Z,65.13
2018-05-02T01:17:26.618Z,65.14
2018-05-02T01:19:54.114Z,66.20
2018-05-02T01:22:21.689Z,66.62
2018-05-02T01:24:49.420Z,67.70
2018-05-02T01:27:16.940Z,68.07
2018-05-02T01:29:44.466Z,67.84
2018-05-02T01:32:12.026Z,68.22
2018-05-02T01:34:39.550Z,69.10
2018-05-02T01:37:07.062Z,68.34
2018-05-02T01:39:34.601Z,68.41
2018-05-02T01:42:02.132Z,68.69
2018-05-02T01:44:29.790Z,68.82
2018-05-02T01:46:58.274Z,69.15
2018-05-02T01:49:25.801Z,69.79
2018-05-02T01:51:53.347Z,69.07
2018-05-02T01:54:20.910Z,68.67
2018-05-02T01:56:48.438Z,68.76
2018-05-02T01:59:15.951Z,68.65
2018-05-02T02:01:43.838Z,69.36
2018-05-02T02:04:11.357Z,69.67
2018-05-02T02:06:38.933Z,69.95
2018-05-02T02:09:06.465Z,70.14
2018-05-02T02:11:34.049Z,70.50
2018-05-02T02:14:01.581Z,70.64
2018-05-02T02:16:29.093Z,70.71
2018-05-02T02:18:56.698Z,70.87
2018-05-02T02:21:24.197Z,70.47
2018-05-02T02:23:51.893Z,70.59
2018-05-02T02:26:19.411Z,70.57
2018-05-02T02:28:46.925Z,71.04
2018-05-02T02:31:14.498Z,71.08
2018-05-02T02:33:42.063Z,70.81
2018-05-02T02:36:09.595Z,71.40
2018-05-02T02:38:37.150Z,72.50
2018-05-02T02:41:04.677Z,72.66
2018-05-02T02:43:32.227Z,72.18
2018-05-02T02:45:59.769Z,71.91
2018-05-02T02:48:27.285Z,72.15
2018-05-02T02:50:54.831Z,72.30
2018-05-02T02:53:22.358Z,72.33
2018-05-02T02:55:50.136Z,72.54
2018-05-02T02:58:17.666Z,72.80
2018-05-02T03:00:45.189Z,73.28
2018-05-02T03:03:12.742Z,73.61
2018-05-02T03:05:40.330Z,73.89
2018-05-02T03:08:07.863Z,73.95
2018-05-02T03:10:35.381Z,73.89
2018-05-02T03:13:02.926Z,74.40
2018-05-02T03:15:30.450Z,74.25
2018-05-02T03:17:57.990Z,74.71
2018-05-02T03:20:25.510Z,75.07
2018-05-02T03:22:53.065Z,75.80
2018-05-02T03:25:20.613Z,75.89
2018-05-02T03:27:48.598Z,76.36
2018-05-02T03:30:16.119Z,76.77
2018-05-02T03:32:43.649Z,77.07
2018-05-02T03:35:11.194Z,76.79
2018-05-02T03:37:38.709Z,76.71
2018-05-02T03:40:06.260Z,75.64
2018-05-02T03:42:33.840Z,76.27
2018-05-02T03:45:01.495Z,76.50
2018-05-02T03:47:29.009Z,76.72
2018-05-02T03:49:56.546Z,76.72
2018-05-02T03:52:24.085Z,76.15
2018-05-02T03:54:51.799Z,76.23
2018-05-02T03:57:19.453Z,76.29
2018-05-02T03:59:58.926Z,76.98
2018-05-02T04:02:38.325Z,76.80
2018-05-02T04:05:17.725Z,77.61
2018-05-02T04:07:45.265Z,77.96
2018-05-02T04:10:12.807Z,77.21
2018-05-02T04:12:40.372Z,77.80
2018-05-02T04:15:07.894Z,77.66
2018-05-02T04:17:35.454Z,77.83
2018-05-02T04:20:02.999Z,77.98
2018-05-02T04:22:30.571Z,78.21
2018-05-02T04:24:58.411Z,78.40
2018-05-02T04:27:25.925Z,78.17
2018-05-02T04:29:53.465Z,78.16
2018-05-02T04:32:20.985Z,78.22
2018-05-02T04:34:48.534Z,77.79
2018-05-02T04:37:16.061Z,77.90
2018-05-02T04:39:43.746Z,77.99
2018-05-02T04:42:11.270Z,77.80
2018-05-02T04:44:38.811Z,77.96
2018-05-02T04:47:06.366Z,77.77
2018-05-02T04:49:33.883Z,77.26
2018-05-02T04:52:01.425Z,77.01
2018-05-02T04:54:28.945Z,75.54
2018-05-02T04:56:56.488Z,75.51
2018-05-02T04:59:24.024Z,75.23
2018-05-02T05:01:51.623Z,75.08
2018-05-02T05:04:19.166Z,75.04
2018-05-02T05:06:46.704Z,74.65
2018-05-02T05:09:14.263Z,74.39
2018-05-02T05:11:41.785Z,74.17
2018-05-02T05:14:09.326Z,73.90
2018-05-02T05:16:36.849Z,73.55
2018-05-02T05:19:04.454Z,73.39
2018-05-02T05:21:31.979Z,73.06
2018-05-02T05:23:59.503Z,73.08
2018-05-02T05:26:27.064Z,73.00
2018-05-02T05:28:54.594Z,73.04
2018-05-02T05:31:22.162Z,72.25
2018-05-02T05:33:49.690Z,71.15
2018-05-02T05:36:17.222Z,71.27
2018-05-02T05:38:44.794Z,69.98
2018-05-02T05:41:12.313Z,67.88
2018-05-02T05:43:39.890Z,67.97
2018-05-02T05:46:07.410Z,66.15
2018-05-02T05:48:34.981Z,64.52
2018-05-02T05:51:02.519Z,64.41
2018-05-02T05:53:30.034Z,63.49
2018-05-02T05:55:58.101Z,65.19
2018-05-02T05:58:25.771Z,63.64
2018-05-02T06:00:53.375Z,63.29
2018-05-02T06:03:20.875Z,62.61
2018-05-02T06:05:48.414Z,62.69
2018-05-02T06:08:15.949Z,63.36
2018-05-02T06:10:43.651Z,63.82
2018-05-02T06:13:11.164Z,62.25
2018-05-02T06:15:38.692Z,63.26
2018-05-02T06:18:06.238Z,63.52
2018-05-02T06:20:34.677Z,62.23
2018-05-02T06:23:02.259Z,61.71
2018-05-02T06:25:29.807Z,63.33
2018-05-02T06:27:57.321Z,63.26
2018-05-02T06:30:24.893Z,62.74
2018-05-02T06:32:52.409Z,62.38
2018-05-02T06:35:19.926Z,59.71
2018-05-02T06:37:47.519Z,62.46
2018-05-02T06:40:15.050Z,62.93
2018-05-02T06:42:42.577Z,63.33
2018-05-02T06:45:10.123Z,62.14
2018-05-02T06:47:37.650Z,60.89
2018-05-02T06:50:05.213Z,61.89
2018-05-02T06:52:32.770Z,60.71
2018-05-02T06:55:00.294Z,63.37
2018-05-02T06:57:27.872Z,63.72
2018-05-02T06:59:55.394Z,64.16
2018-05-02T07:02:22.920Z,64.69
2018-05-02T07:04:50.874Z,64.60
2018-05-02T07:07:18.402Z,63.96
2018-05-02T07:09:45.931Z,63.99
2018-05-02T07:12:13.479Z,64.64
2018-05-02T07:14:41.003Z,63.18
2018-05-02T07:17:08.947Z,65.13
2018-05-02T07:19:36.457Z,63.15
2018-05-02T07:22:03.985Z,62.98
2018-05-02T07:24:31.571Z,63.21
2018-05-02T07:26:59.094Z,62.35
2018-05-02T07:29:26.629Z,62.38
2018-05-02T07:31:54.202Z,61.57
2018-05-02T07:34:21.729Z,62.54
2018-05-02T07:36:49.253Z,61.96
2018-05-02T07:39:16.814Z,60.87
2018-05-02T07:41:44.417Z,61.85
2018-05-02T07:44:11.880Z,60.72
2018-05-02T07:46:39.466Z,61.24
2018-05-02T07:49:07.010Z,60.45
2018-05-02T07:51:34.590Z,59.87
2018-05-02T07:54:02.122Z,59.36
2018-05-02T07:56:29.677Z,59.03
2018-05-02T07:58:57.625Z,58.84
2018-05-02T08:01:25.137Z,57.87
2018-05-02T08:03:52.653Z,59.00
2018-05-02T08:06:20.185Z,58.83
2018-05-02T08:08:47.697Z,57.80
2018-05-02T08:11:15.242Z,57.46
2018-05-02T08:13:42.761Z,58.33
2018-05-02T08:16:10.301Z,57.44
2018-05-02T08:18:37.844Z,57.61
2018-05-02T08:21:05.356Z,57.92
2018-05-02T08:23:32.925Z,57.61
2018-05-02T08:26:00.449Z,57.68
2018-05-02T08:28:27.970Z,57.71
2018-05-02T08:30:55.514Z,58.45
2018-05-02T08:33:23.021Z,56.52
2018-05-02T08:35:50.587Z,55.80
2018-05-02T08:38:18.122Z,54.40
2018-05-02T08:40:45.656Z,55.39
2018-05-02T08:43:13.193Z,55.29
2018-05-02T08:45:40.766Z,55.81
2018-05-02T08:48:08.277Z,56.50
2018-05-02T08:50:35.815Z,55.80
2018-05-02T08:53:03.382Z,54.85
2018-05-02T08:55:30.899Z,54.73
2018-05-02T08:57:58.409Z,52.84
2018-05-02T09:00:26.002Z,54.04
2018-05-02T09:02:53.510Z,53.93
2018-05-02T09:05:21.470Z,52.40
2018-05-02T09:07:48.977Z,52.92
2018-05-02T09:10:16.510Z,52.51
2018-05-02T09:12:44.053Z,51.98
2018-05-02T09:15:11.566Z,52.02
2018-05-02T09:17:39.105Z,52.00
2018-05-02T09:20:06.632Z,53.11
2018-05-02T09:22:34.207Z,52.01
2018-05-02T09:25:01.724Z,51.78
2018-05-02T09:27:29.237Z,50.44
2018-05-02T09:29:56.969Z,50.85
2018-05-02T09:32:24.491Z,51.72
2018-05-02T09:34:52.006Z,51.81
2018-05-02T09:37:19.705Z,52.01
2018-05-02T09:39:47.217Z,50.58
2018-05-02T09:42:14.725Z,50.09
2018-05-02T09:44:42.410Z,50.56
2018-05-02T09:47:09.925Z,49.15
2018-05-02T09:49:37.433Z,48.00
2018-05-02T09:52:04.998Z,49.01
2018-05-02T09:54:32.707Z,48.97
2018-05-02T09:57:00.226Z,49.59
2018-05-02T09:59:27.744Z,49.75
2018-05-02T10:01:55.277Z,48.74
2018-05-02T10:04:23.034Z,49.30
2018-05-02T10:06:50.551Z,49.09
2018-05-02T10:09:18.077Z,50.83
2018-05-02T10:11:45.623Z,49.48
2018-05-02T10:14:13.602Z,48.98
2018-05-02T10:16:41.109Z,48.63
2018-05-02T10:19:08.626Z,48.93
2018-05-02T10:21:36.318Z,49.20
2018-05-02T10:24:03.837Z,50.05
2018-05-02T10:26:31.359Z,48.48
2018-05-02T10:28:58.898Z,48.93
2018-05-02T10:31:26.877Z,49.08
2018-05-02T10:33:54.398Z,46.40
2018-05-02T10:36:21.919Z,46.65
2018-05-02T10:38:49.473Z,47.66
2018-05-02T10:41:16.997Z,47.72
2018-05-02T10:43:44.536Z,48.23
2018-05-02T10:46:12.107Z,47.63
2018-05-02T10:48:39.626Z,47.43
2018-05-02T10:51:07.138Z,46.53
2018-05-02T10:53:34.673Z,45.48
2018-05-02T10:56:02.229Z,47.72
2018-05-02T10:58:29.774Z,47.12
2018-05-02T11:00:57.290Z,47.55
2018-05-02T11:03:24.801Z,46.67
2018-05-02T11:05:52.739Z,47.21
2018-05-02T11:08:20.257Z,47.54
2018-05-02T11:10:47.770Z,45.58
2018-05-02T11:13:15.458Z,46.74
2018-05-02T11:15:42.972Z,45.57
2018-05-02T11:18:10.526Z,46.30
2018-05-02T11:20:38.090Z,46.87
2018-05-02T11:23:05.602Z,46.18
2018-05-02T11:25:33.118Z,45.06
2018-05-02T11:28:00.669Z,43.92
2018-05-02T11:30:28.191Z,44.81
2018-05-02T11:32:55.946Z,43.41
2018-05-02T11:35:23.468Z,44.48
2018-05-02T11:37:50.996Z,43.52
2018-05-02T11:40:18.538Z,44.31
2018-05-02T11:42:46.234Z,43.54
2018-05-02T11:45:13.754Z,44.49
2018-05-02T11:47:41.282Z,44.31
2018-05-02T11:50:08.822Z,44.20
2018-05-02T11:52:36.338Z,45.23
2018-05-02T11:55:03.899Z,44.73
2018-05-02T11:57:31.431Z,43.89
2018-05-02T11:59:58.969Z,43.58
2018-05-02T12:02:26.478Z,43.13
2018-05-02T12:04:54.017Z,43.31
2018-05-02T12:07:21.529Z,42.45
2018-05-02T12:09:49.046Z,44.40
2018-05-02T12:12:16.590Z,43.71
2018-05-02T12:14:44.123Z,44.10
2018-05-02T12:17:11.644Z,43.73
2018-05-02T12:19:39.216Z,43.17
2018-05-02T12:22:06.743Z,43.73
2018-05-02T12:24:34.280Z,43.83
2018-05-02T12:27:02.043Z,44.30
2018-05-02T12:29:29.562Z,44.66
2018-05-02T12:31:57.087Z,42.98
2018-05-02T12:34:25.066Z,43.98
2018-05-02T12:36:52.594Z,42.24
2018-05-02T12:39:20.106Z,42.45
2018-05-02T12:41:47.651Z,43.98
2018-05-02T12:44:15.511Z,44.29
2018-05-02T12:46:43.122Z,42.91
2018-05-02T12:49:10.639Z,43.37
2018-05-02T12:51:38.390Z,43.28
2018-05-02T12:54:05.917Z,42.82
2018-05-02T12:56:33.430Z,42.95
2018-05-02T12:59:00.969Z,42.22
2018-05-02T13:01:28.597Z,43.14
2018-05-02T13:03:56.119Z,44.14
2018-05-02T13:06:23.638Z,42.58
2018-05-02T13:08:51.177Z,42.37
2018-05-02T13:11:19.091Z,43.22
2018-05-02T13:13:46.606Z,42.86
2018-05-02T13:16:14.125Z,42.52
2018-05-02T13:18:41.660Z,43.06
2018-05-02T13:21:09.216Z,42.09
2018-05-02T13:23:36.726Z,44.12
2018-05-02T13:26:04.260Z,41.72
2018-05-02T13:28:31.782Z,43.47
2018-05-02T13:30:59.425Z,44.31
2018-05-02T13:33:26.945Z,42.23
2018-05-02T13:35:54.453Z,42.39
2018-05-02T13:38:21.984Z,42.13
2018-05-02T13:40:49.502Z,43.58
2018-05-02T13:43:17.158Z,43.19
2018-05-02T13:45:44.665Z,43.14
2018-05-02T13:48:12.191Z,42.14
2018-05-02T13:50:39.757Z,42.54
2018-05-02T13:53:07.267Z,41.64
2018-05-02T13:55:34.878Z,41.29
2018-05-02T13:58:02.353Z,41.92
2018-05-02T14:00:29.871Z,41.40
2018-05-02T14:02:57.382Z,42.80
2018-05-02T14:05:24.953Z,41.43
2018-05-02T14:07:52.465Z,41.19
2018-05-02T14:10:19.969Z,39.54
2018-05-02T14:12:47.514Z,40.92
2018-05-02T14:15:15.019Z,41.10
2018-05-02T14:17:42.591Z,40.83
2018-05-02T14:20:10.105Z,40.76
2018-05-02T14:22:37.635Z,40.83
2018-05-02T14:25:05.178Z,40.48
2018-05-02T14:27:32.693Z,40.47
2018-05-02T14:30:00.220Z,40.02
2018-05-02T14:32:27.757Z,41.58
2018-05-02T14:34:55.280Z,41.39
2018-05-02T14:37:22.822Z,41.24
2018-05-02T14:39:50.329Z,41.10
2018-05-02T14:42:17.902Z,40.81
2018-05-02T14:44:45.418Z,40.25
2018-05-02T14:47:12.933Z,39.92
2018-05-02T14:49:40.674Z,40.34
2018-05-02T14:52:08.189Z,41.08
2018-05-02T14:54:35.753Z,41.22
2018-05-02T14:57:03.328Z,42.14
2018-05-02T14:59:30.850Z,41.88
2018-05-02T15:01:58.424Z,41.52
2018-05-02T15:04:25.970Z,41.62
2018-05-02T15:06:53.497Z,41.41
2018-05-02T15:09:21.010Z,41.01
2018-05-02T15:11:48.597Z,41.41
2018-05-02T15:14:16.114Z,41.25
2018-05-02T15:16:43.635Z,41.27
2018-05-02T15:19:11.353Z,41.41
2018-05-02T15:21:38.857Z,41.51
2018-05-02T15:24:06.366Z,40.52
2018-05-02T15:26:33.893Z,40.24
2018-05-02T15:29:01.411Z,40.69
2018-05-02T15:31:28.950Z,41.81
2018-05-02T15:33:56.470Z,40.85
2018-05-02T15:36:24.361Z,40.41
2018-05-02T15:38:51.878Z,40.56
2018-05-02T15:41:19.388Z,40.77
2018-05-02T15:43:46.922Z,41.13
2018-05-02T15:46:14.433Z,41.18
2018-05-02T15:48:42.000Z,41.10
2018-05-02T15:51:09.519Z,40.55
2018-05-02T15:53:37.025Z,41.45
2018-05-02T15:56:04.576Z,41.53
2018-05-02T15:58:32.202Z,42.06
2018-05-02T16:01:00.194Z,42.36
2018-05-02T16:03:27.844Z,40.71
2018-05-02T16:05:55.748Z,40.46
2018-05-02T16:08:23.602Z,41.24
2018-05-02T16:10:51.131Z,40.96
2018-05-02T16:13:18.702Z,41.47
2018-05-02T16:15:46.326Z,41.17
2018-05-02T16:18:13.928Z,41.06
2018-05-02T16:20:41.474Z,40.98
2018-05-02T16:23:09.434Z,41.40
2018-05-02T16:25:36.954Z,41.21
2018-05-02T16:28:04.495Z,41.23
2018-05-02T16:30:32.110Z,41.72
2018-05-02T16:32:59.677Z,40.90
2018-05-02T16:35:27.255Z,40.88
2018-05-02T16:37:54.798Z,40.99
2018-05-02T16:40:22.318Z,41.30
2018-05-02T16:42:49.853Z,41.21
2018-05-02T16:45:17.546Z,41.65
2018-05-02T16:47:45.066Z,40.88
2018-05-02T16:50:12.582Z,41.54
2018-05-02T16:52:40.127Z,41.34
2018-05-02T16:55:07.655Z,41.37
2018-05-02T16:57:35.276Z,41.44
2018-05-02T17:00:02.810Z,42.81
2018-05-02T17:02:30.387Z,43.17
2018-05-02T17:04:58.047Z,42.83
2018-05-02T17:07:25.578Z,42.67
2018-05-02T17:09:53.097Z,41.59
2018-05-02T17:12:21.046Z,43.08
2018-05-02T17:14:48.569Z,43.12
2018-05-02T17:17:16.089Z,42.92
2018-05-02T17:19:43.698Z,42.61
2018-05-02T17:22:11.322Z,42.97
2018-05-02T17:24:38.851Z,42.89
2018-05-02T17:27:06.480Z,42.99
2018-05-02T17:29:34.001Z,43.63
2018-05-02T17:32:01.524Z,43.37
2018-05-02T17:34:29.067Z,43.29
2018-05-02T17:36:56.594Z,43.50
2018-05-02T17:39:24.129Z,43.52
2018-05-02T17:41:51.679Z,43.83
2018-05-02T17:44:19.394Z,43.92
2018-05-02T17:46:47.886Z,43.78
2018-05-02T17:49:15.429Z,44.69
2018-05-02T17:51:43.068Z,44.33
2018-05-02T17:54:10.632Z,45.41
2018-05-02T17:56:38.228Z,45.01
2018-05-02T17:59:05.798Z,45.84
2018-05-02T18:01:33.493Z,45.46
2018-05-02T18:04:01.335Z,45.98
2018-05-02T18:06:29.102Z,46.04
2018-05-02T18:08:56.618Z,45.87
2018-05-02T18:11:24.140Z,45.98
2018-05-02T18:14:02.346Z,46.42
2018-05-02T18:16:30.878Z,47.21
2018-05-02T18:18:58.539Z,48.77
2018-05-02T18:21:26.407Z,48.11
2018-05-02T18:23:53.921Z,49.12
2018-05-02T18:26:22.362Z,49.41
2018-05-02T18:28:49.905Z,50.53
2018-05-02T18:31:17.443Z,51.42
2018-05-02T18:33:45.017Z,52.14
2018-05-02T18:36:12.533Z,53.37
2018-05-02T18:38:40.059Z,54.76
2018-05-02T18:41:07.633Z,55.72
2018-05-02T18:43:35.153Z,56.50
2018-05-02T18:46:02.667Z,56.69
2018-05-02T18:48:30.214Z,54.82
2018-05-02T18:50:57.910Z,56.46
2018-05-02T18:53:25.423Z,57.75
2018-05-02T18:55:52.986Z,58.64
2018-05-02T18:58:21.038Z,59.03
2018-05-02T19:00:48.555Z,58.97
2018-05-02T19:03:16.126Z,58.43
2018-05-02T19:05:44.153Z,60.04
2018-05-02T19:08:11.778Z,59.95
2018-05-02T19:10:39.325Z,61.07
2018-05-02T19:13:06.857Z,61.68
2018-05-02T19:15:34.725Z,62.89
2018-05-02T19:18:07.676Z,64.09
2018-05-02T19:20:35.925Z,63.52
2018-05-02T19:23:03.581Z,63.19
2018-05-02T19:25:36.913Z,63.85
2018-05-02T19:28:04.494Z,64.35
2018-05-02T19:30:32.006Z,64.75
2018-05-02T19:33:05.053Z,64.81
2018-05-02T19:35:32.637Z,64.80
2018-05-02T19:38:00.113Z,63.46
2018-05-02T19:40:33.243Z,64.38
2018-05-02T19:43:06.390Z,64.49
2018-05-02T19:45:34.381Z,64.40
2018-05-02T19:48:02.053Z,65.10
2018-05-02T19:50:29.581Z,64.11
2018-05-02T19:52:57.136Z,65.57
2018-05-02T19:55:24.682Z,64.86
2018-05-02T19:57:52.208Z,64.59
2018-05-02T20:00:25.490Z,64.82
2018-05-02T20:02:58.897Z,64.33
2018-05-02T20:05:26.786Z,64.82
2018-05-02T20:07:54.297Z,65.14
2018-05-02T20:10:27.470Z,63.91
2018-05-02T20:13:00.634Z,65.23
2018-05-02T20:15:28.172Z,63.17
2018-05-02T20:17:55.758Z,62.90
2018-05-02T20:20:23.312Z,62.93
2018-05-02T20:22:51.278Z,61.24
2018-05-02T20:25:18.879Z,62.49
2018-05-02T20:27:46.699Z,62.85
2018-05-02T20:30:14.225Z,58.97
2018-05-02T20:32:41.733Z,60.40
2018-05-02T20:35:09.455Z,59.23
2018-05-02T20:37:36.974Z,58.03
2018-05-02T20:40:04.525Z,57.39
2018-05-02T20:42:32.269Z,55.96
2018-05-02T20:44:59.785Z,55.80
2018-05-02T20:47:27.303Z,55.80
2018-05-02T20:49:54.849Z,55.99
2018-05-02T20:52:22.390Z,55.21
2018-05-02T20:54:49.982Z,54.41
2018-05-02T20:57:17.485Z,54.34
2018-05-02T20:59:45.649Z,54.54
2018-05-02T21:02:13.198Z,52.73
2018-05-02T21:04:40.809Z,52.48
2018-05-02T21:07:08.353Z,52.61
2018-05-02T21:09:35.936Z,53.09
2018-05-02T21:12:03.454Z,52.95
2018-05-02T21:14:31.021Z,52.72
2018-05-02T21:16:59.001Z,53.98
2018-05-02T21:19:26.555Z,53.94
2018-05-02T21:21:54.436Z,53.71
2018-05-02T21:24:22.014Z,53.73
2018-05-02T21:26:49.541Z,54.14
2018-05-02T21:29:17.078Z,54.01
2018-05-02T21:31:44.624Z,53.55
2018-05-02T21:34:12.158Z,53.68
2018-05-02T21:36:39.733Z,54.38
2018-05-02T21:39:07.321Z,53.69
2018-05-02T21:41:34.853Z,55.35
2018-05-02T21:44:02.415Z,53.85
2018-05-02T21:46:30.086Z,54.32
2018-05-02T21:48:57.611Z,53.59
2018-05-02T21:51:25.123Z,53.92
2018-05-02T21:53:53.111Z,52.68
2018-05-02T21:56:20.630Z,54.21
2018-05-02T21:58:48.150Z,53.32
2018-05-02T22:01:15.711Z,53.65
2018-05-02T22:03:43.606Z,53.71
2018-05-02T22:06:11.120Z,54.04
2018-05-02T22:08:38.638Z,55.57
2018-05-02T22:11:06.202Z,54.41
2018-05-02T22:13:33.722Z,54.47
2018-05-02T22:16:01.364Z,54.24
2018-05-02T22:18:28.907Z,54.90
2018-05-02T22:20:56.427Z,55.04
2018-05-02T22:23:23.997Z,54.95
2018-05-02T22:25:51.509Z,55.04
2018-05-02T22:28:19.026Z,55.94
2018-05-02T22:30:46.567Z,55.55
2018-05-02T22:33:14.101Z,55.30
2018-05-02T22:35:41.633Z,55.74
2018-05-02T22:38:09.146Z,55.85
2018-05-02T22:40:36.776Z,55.76
2018-05-02T22:43:04.381Z,55.64
2018-05-02T22:45:32.294Z,57.69
2018-05-02T22:47:59.886Z,55.80
2018-05-02T22:50:27.397Z,55.60
2018-05-02T22:52:55.390Z,55.69
2018-05-02T22:55:22.915Z,56.67
2018-05-02T22:57:50.565Z,56.38
2018-05-02T23:00:18.149Z,56.36
2018-05-02T23:02:45.685Z,60.03
2018-05-02T23:05:13.211Z,56.70
2018-05-02T23:07:40.763Z,56.94
2018-05-02T23:10:08.497Z,57.42
2018-05-02T23:12:36.018Z,57.66
2018-05-02T23:15:03.541Z,57.74
2018-05-02T23:17:31.086Z,58.19
2018-05-02T23:19:58.886Z,58.97
2018-05-02T23:22:26.414Z,59.64
2018-05-02T23:24:53.930Z,60.67
2018-05-02T23:27:21.473Z,61.45
2018-05-02T23:29:49.010Z,61.79
2018-05-02T23:32:16.575Z,62.16
2018-05-02T23:34:44.146Z,62.75
2018-05-02T23:37:11.681Z,63.14
2018-05-02T23:39:39.198Z,63.77
2018-05-02T23:42:06.742Z,63.80
2018-05-02T23:44:34.290Z,64.96
2018-05-02T23:47:01.805Z,65.61
2018-05-02T23:49:29.345Z,65.91
2018-05-02T23:51:56.867Z,66.36
2018-05-02T23:54:24.611Z,66.36
2018-05-02T23:56:52.127Z,66.43
2018-05-02T23:59:19.646Z,66.89
